sensor_id;sensor_type;location;lat;lon;timestamp;pressure;altitude;pressure_sealevel;temperature;humidity
64200;BME280;50516;52.272;5.136;2022-09-09T00:09:20;100713.00;;;17.27;77.09
64200;BME280;50516;52.272;5.136;2022-09-09T00:17:34;100707.59;;;17.22;77.36
64200;BME280;50516;52.272;5.136;2022-09-09T00:20:02;100713.38;;;17.34;77.35
64200;BME280;50516;52.272;5.136;2022-09-09T00:22:35;100704.41;;;17.38;77.45
64200;BME280;50516;52.272;5.136;2022-09-09T00:25:12;100704.09;;;17.39;77.32
64200;BME280;50516;52.272;5.136;2022-09-09T00:27:48;100699.81;;;17.33;77.52
64200;BME280;50516;52.272;5.136;2022-09-09T00:30:22;100691.66;;;17.37;77.23
64200;BME280;50516;52.272;5.136;2022-09-09T00:32:52;100697.19;;;17.28;77.27
64200;BME280;50516;52.272;5.136;2022-09-09T00:35:25;100694.75;;;17.26;77.43
64200;BME280;50516;52.272;5.136;2022-09-09T00:37:56;100700.22;;;17.09;78.28
64200;BME280;50516;52.272;5.136;2022-09-09T00:40:31;100703.81;;;17.18;77.95
64200;BME280;50516;52.272;5.136;2022-09-09T00:48:35;100700.72;;;17.11;78.62
64200;BME280;50516;52.272;5.136;2022-09-09T00:51:10;100702.22;;;17.17;78.75
64200;BME280;50516;52.272;5.136;2022-09-09T00:54:04;100701.03;;;17.18;78.18
64200;BME280;50516;52.272;5.136;2022-09-09T00:56:38;100697.44;;;17.09;78.88
64200;BME280;50516;52.272;5.136;2022-09-09T01:01:36;100702.06;;;17.22;78.25
64200;BME280;50516;52.272;5.136;2022-09-09T01:04:05;100702.84;;;17.14;78.47
64200;BME280;50516;52.272;5.136;2022-09-09T01:06:36;100700.06;;;17.14;78.50
64200;BME280;50516;52.272;5.136;2022-09-09T01:10:26;100701.84;;;17.10;78.17
64200;BME280;50516;52.272;5.136;2022-09-09T01:17:33;100705.38;;;17.02;78.78
64200;BME280;50516;52.272;5.136;2022-09-09T01:20:10;100695.38;;;16.92;79.19
64200;BME280;50516;52.272;5.136;2022-09-09T01:22:47;100693.94;;;16.94;78.95
64200;BME280;50516;52.272;5.136;2022-09-09T01:28:22;100699.53;;;16.80;79.26
64200;BME280;50516;52.272;5.136;2022-09-09T01:30:50;100694.41;;;16.88;78.81
64200;BME280;50516;52.272;5.136;2022-09-09T01:33:17;100700.75;;;16.88;78.58
64200;BME280;50516;52.272;5.136;2022-09-09T01:35:45;100686.69;;;16.85;78.68
64200;BME280;50516;52.272;5.136;2022-09-09T01:38:12;100686.59;;;16.90;78.66
64200;BME280;50516;52.272;5.136;2022-09-09T01:40:38;100681.34;;;16.88;78.54
64200;BME280;50516;52.272;5.136;2022-09-09T01:43:04;100687.31;;;16.82;78.66
64200;BME280;50516;52.272;5.136;2022-09-09T01:45:30;100685.84;;;16.84;78.46
64200;BME280;50516;52.272;5.136;2022-09-09T01:47:56;100681.78;;;16.82;78.57
64200;BME280;50516;52.272;5.136;2022-09-09T01:50:21;100675.75;;;16.79;78.44
64200;BME280;50516;52.272;5.136;2022-09-09T01:52:50;100680.63;;;16.83;78.26
64200;BME280;50516;52.272;5.136;2022-09-09T01:55:17;100680.47;;;16.79;78.51
64200;BME280;50516;52.272;5.136;2022-09-09T01:58:34;100677.81;;;16.74;78.40
64200;BME280;50516;52.272;5.136;2022-09-09T02:00:35;100678.78;;;16.69;78.48
64200;BME280;50516;52.272;5.136;2022-09-09T02:03:25;100682.38;;;16.70;78.43
64200;BME280;50516;52.272;5.136;2022-09-09T02:08:28;100671.72;;;16.63;78.83
64200;BME280;50516;52.272;5.136;2022-09-09T02:11:10;100676.59;;;16.57;78.67
64200;BME280;50516;52.272;5.136;2022-09-09T02:13:38;100665.19;;;16.59;78.53
64200;BME280;50516;52.272;5.136;2022-09-09T02:16:10;100672.69;;;16.58;78.41
64200;BME280;50516;52.272;5.136;2022-09-09T02:18:42;100664.03;;;16.60;78.42
64200;BME280;50516;52.272;5.136;2022-09-09T02:21:11;100666.81;;;16.60;78.66
64200;BME280;50516;52.272;5.136;2022-09-09T02:23:41;100662.91;;;16.61;78.53
64200;BME280;50516;52.272;5.136;2022-09-09T02:26:10;100669.78;;;16.64;78.18
64200;BME280;50516;52.272;5.136;2022-09-09T02:28:39;100661.47;;;16.64;78.57
64200;BME280;50516;52.272;5.136;2022-09-09T02:31:07;100658.69;;;16.64;78.36
64200;BME280;50516;52.272;5.136;2022-09-09T02:33:42;100657.06;;;16.63;78.29
64200;BME280;50516;52.272;5.136;2022-09-09T02:36:10;100667.78;;;16.55;78.64
64200;BME280;50516;52.272;5.136;2022-09-09T02:38:41;100663.38;;;16.54;78.70
64200;BME280;50516;52.272;5.136;2022-09-09T02:41:08;100664.81;;;16.52;78.78
64200;BME280;50516;52.272;5.136;2022-09-09T02:43:34;100667.41;;;16.48;78.88
64200;BME280;50516;52.272;5.136;2022-09-09T02:46:41;100675.16;;;16.37;79.09
64200;BME280;50516;52.272;5.136;2022-09-09T02:49:15;100659.53;;;16.41;78.73
64200;BME280;50516;52.272;5.136;2022-09-09T02:52:04;100660.78;;;16.35;79.27
64200;BME280;50516;52.272;5.136;2022-09-09T02:54:35;100656.16;;;16.22;79.35
64200;BME280;50516;52.272;5.136;2022-09-09T02:57:09;100661.06;;;16.25;79.74
64200;BME280;50516;52.272;5.136;2022-09-09T02:59:36;100670.06;;;16.31;79.38
64200;BME280;50516;52.272;5.136;2022-09-09T03:02:02;100667.69;;;16.15;79.90
64200;BME280;50516;52.272;5.136;2022-09-09T03:04:28;100663.66;;;16.21;79.49
64200;BME280;50516;52.272;5.136;2022-09-09T03:06:53;100667.41;;;16.25;79.22
64200;BME280;50516;52.272;5.136;2022-09-09T03:09:18;100658.13;;;16.21;79.17
64200;BME280;50516;52.272;5.136;2022-09-09T03:11:44;100649.81;;;16.21;79.44
64200;BME280;50516;52.272;5.136;2022-09-09T03:14:09;100658.22;;;16.16;79.57
64200;BME280;50516;52.272;5.136;2022-09-09T03:16:36;100657.59;;;16.19;79.52
64200;BME280;50516;52.272;5.136;2022-09-09T03:19:02;100645.97;;;16.09;79.87
64200;BME280;50516;52.272;5.136;2022-09-09T03:21:27;100648.41;;;16.10;79.83
64200;BME280;50516;52.272;5.136;2022-09-09T03:23:52;100651.88;;;16.16;79.62
64200;BME280;50516;52.272;5.136;2022-09-09T03:26:18;100650.75;;;16.17;79.70
64200;BME280;50516;52.272;5.136;2022-09-09T03:28:44;100641.41;;;16.13;79.50
64200;BME280;50516;52.272;5.136;2022-09-09T03:31:10;100634.75;;;16.14;79.37
64200;BME280;50516;52.272;5.136;2022-09-09T03:33:39;100639.72;;;16.03;79.54
64200;BME280;50516;52.272;5.136;2022-09-09T03:36:06;100646.28;;;16.07;79.64
64200;BME280;50516;52.272;5.136;2022-09-09T03:38:33;100655.88;;;16.10;79.66
64200;BME280;50516;52.272;5.136;2022-09-09T03:40:59;100649.50;;;16.00;79.79
64200;BME280;50516;52.272;5.136;2022-09-09T03:43:26;100645.56;;;16.01;79.84
64200;BME280;50516;52.272;5.136;2022-09-09T03:45:52;100647.22;;;16.02;79.61
64200;BME280;50516;52.272;5.136;2022-09-09T03:48:18;100655.03;;;16.00;79.97
64200;BME280;50516;52.272;5.136;2022-09-09T03:50:48;100646.41;;;16.02;79.64
64200;BME280;50516;52.272;5.136;2022-09-09T03:53:14;100642.47;;;16.03;79.48
64200;BME280;50516;52.272;5.136;2022-09-09T03:55:44;100645.41;;;15.84;80.33
64200;BME280;50516;52.272;5.136;2022-09-09T03:58:11;100646.94;;;15.90;80.08
64200;BME280;50516;52.272;5.136;2022-09-09T04:00:36;100646.44;;;15.88;79.95
64200;BME280;50516;52.272;5.136;2022-09-09T04:03:01;100645.94;;;15.86;80.02
64200;BME280;50516;52.272;5.136;2022-09-09T04:05:27;100653.84;;;15.79;80.31
64200;BME280;50516;52.272;5.136;2022-09-09T04:07:55;100638.44;;;15.73;80.37
64200;BME280;50516;52.272;5.136;2022-09-09T04:10:20;100640.91;;;15.74;80.39
64200;BME280;50516;52.272;5.136;2022-09-09T04:12:46;100644.31;;;15.71;80.58
64200;BME280;50516;52.272;5.136;2022-09-09T04:15:11;100637.75;;;15.67;80.57
64200;BME280;50516;52.272;5.136;2022-09-09T04:17:36;100640.34;;;15.63;80.87
64200;BME280;50516;52.272;5.136;2022-09-09T04:20:02;100634.59;;;15.60;81.29
64200;BME280;50516;52.272;5.136;2022-09-09T04:22:27;100631.72;;;15.65;80.73
64200;BME280;50516;52.272;5.136;2022-09-09T04:24:53;100626.06;;;15.70;80.40
64200;BME280;50516;52.272;5.136;2022-09-09T04:27:18;100631.09;;;15.68;80.68
64200;BME280;50516;52.272;5.136;2022-09-09T04:29:43;100626.88;;;15.70;80.48
64200;BME280;50516;52.272;5.136;2022-09-09T04:32:09;100621.97;;;15.67;80.77
64200;BME280;50516;52.272;5.136;2022-09-09T04:34:34;100619.25;;;15.54;81.14
64200;BME280;50516;52.272;5.136;2022-09-09T04:36:59;100611.47;;;15.56;81.10
64200;BME280;50516;52.272;5.136;2022-09-09T04:39:26;100614.41;;;15.59;81.05
64200;BME280;50516;52.272;5.136;2022-09-09T04:41:51;100604.59;;;15.53;81.21
64200;BME280;50516;52.272;5.136;2022-09-09T04:44:16;100617.19;;;15.59;81.03
64200;BME280;50516;52.272;5.136;2022-09-09T04:46:42;100612.03;;;15.66;80.56
64200;BME280;50516;52.272;5.136;2022-09-09T04:49:07;100610.22;;;15.62;80.73
64200;BME280;50516;52.272;5.136;2022-09-09T04:51:32;100605.59;;;15.57;80.82
64200;BME280;50516;52.272;5.136;2022-09-09T04:53:58;100602.66;;;15.54;81.12
64200;BME280;50516;52.272;5.136;2022-09-09T04:56:23;100607.34;;;15.53;80.78
64200;BME280;50516;52.272;5.136;2022-09-09T04:58:52;100604.72;;;15.48;81.13
64200;BME280;50516;52.272;5.136;2022-09-09T05:01:19;100601.97;;;15.34;81.69
64200;BME280;50516;52.272;5.136;2022-09-09T05:03:45;100607.41;;;15.39;81.50
64200;BME280;50516;52.272;5.136;2022-09-09T05:06:13;100606.38;;;15.35;81.92
64200;BME280;50516;52.272;5.136;2022-09-09T05:08:40;100601.88;;;15.39;81.68
64200;BME280;50516;52.272;5.136;2022-09-09T05:13:41;100601.47;;;15.32;82.22
64200;BME280;50516;52.272;5.136;2022-09-09T05:16:06;100604.94;;;15.38;81.88
64200;BME280;50516;52.272;5.136;2022-09-09T05:18:32;100607.00;;;15.32;82.22
64200;BME280;50516;52.272;5.136;2022-09-09T05:21:00;100602.59;;;15.31;82.27
64200;BME280;50516;52.272;5.136;2022-09-09T05:23:26;100592.72;;;15.39;82.23
64200;BME280;50516;52.272;5.136;2022-09-09T05:25:58;100596.94;;;15.36;82.08
64200;BME280;50516;52.272;5.136;2022-09-09T05:28:27;100597.94;;;15.40;82.12
64200;BME280;50516;52.272;5.136;2022-09-09T05:31:04;100598.38;;;15.47;81.90
64200;BME280;50516;52.272;5.136;2022-09-09T05:33:31;100607.19;;;15.36;82.17
64200;BME280;50516;52.272;5.136;2022-09-09T05:36:17;100603.28;;;15.37;82.35
64200;BME280;50516;52.272;5.136;2022-09-09T05:38:43;100604.59;;;15.53;81.93
64200;BME280;50516;52.272;5.136;2022-09-09T05:41:10;100612.25;;;15.56;81.80
64200;BME280;50516;52.272;5.136;2022-09-09T05:43:36;100601.63;;;15.49;81.98
64200;BME280;50516;52.272;5.136;2022-09-09T05:46:06;100599.66;;;15.64;81.74
64200;BME280;50516;52.272;5.136;2022-09-09T05:48:34;100593.25;;;15.77;81.16
64200;BME280;50516;52.272;5.136;2022-09-09T05:51:00;100597.41;;;15.88;80.91
64200;BME280;50516;52.272;5.136;2022-09-09T05:53:27;100596.78;;;15.92;80.76
64200;BME280;50516;52.272;5.136;2022-09-09T05:58:30;100605.06;;;16.05;80.22
64200;BME280;50516;52.272;5.136;2022-09-09T06:01:25;100603.34;;;16.18;80.13
64200;BME280;50516;52.272;5.136;2022-09-09T06:03:52;100603.69;;;16.25;79.71
64200;BME280;50516;52.272;5.136;2022-09-09T06:06:19;100612.28;;;15.93;80.93
64200;BME280;50516;52.272;5.136;2022-09-09T06:08:47;100611.78;;;16.13;80.94
64200;BME280;50516;52.272;5.136;2022-09-09T06:11:17;100598.91;;;16.40;79.99
64200;BME280;50516;52.272;5.136;2022-09-09T06:13:43;100596.81;;;16.46;79.83
64200;BME280;50516;52.272;5.136;2022-09-09T06:16:14;100602.41;;;16.54;79.60
64200;BME280;50516;52.272;5.136;2022-09-09T06:18:40;100597.94;;;16.45;79.93
64200;BME280;50516;52.272;5.136;2022-09-09T06:21:15;100608.56;;;16.51;79.75
64200;BME280;50516;52.272;5.136;2022-09-09T06:23:41;100597.03;;;16.58;79.54
64200;BME280;50516;52.272;5.136;2022-09-09T06:26:11;100598.06;;;16.71;79.10
64200;BME280;50516;52.272;5.136;2022-09-09T06:28:37;100606.06;;;17.04;77.83
64200;BME280;50516;52.272;5.136;2022-09-09T06:31:08;100593.81;;;17.05;77.77
64200;BME280;50516;52.272;5.136;2022-09-09T06:33:35;100604.63;;;17.32;77.29
64200;BME280;50516;52.272;5.136;2022-09-09T06:36:03;100610.50;;;17.22;77.37
64200;BME280;50516;52.272;5.136;2022-09-09T06:38:29;100600.84;;;17.20;77.92
64200;BME280;50516;52.272;5.136;2022-09-09T06:40:56;100603.50;;;17.25;77.76
64200;BME280;50516;52.272;5.136;2022-09-09T06:43:23;100598.06;;;17.11;78.30
64200;BME280;50516;52.272;5.136;2022-09-09T06:45:56;100599.03;;;16.97;78.62
64200;BME280;50516;52.272;5.136;2022-09-09T06:48:21;100602.06;;;16.87;79.17
64200;BME280;50516;52.272;5.136;2022-09-09T06:50:47;100598.75;;;17.25;77.81
64200;BME280;50516;52.272;5.136;2022-09-09T06:53:12;100595.38;;;17.46;77.02
64200;BME280;50516;52.272;5.136;2022-09-09T06:55:41;100594.59;;;16.96;78.82
64200;BME280;50516;52.272;5.136;2022-09-09T06:58:09;100606.97;;;16.90;79.34
64200;BME280;50516;52.272;5.136;2022-09-09T07:00:34;100608.88;;;16.81;79.82
64200;BME280;50516;52.272;5.136;2022-09-09T07:03:02;100603.25;;;16.95;79.43
64200;BME280;50516;52.272;5.136;2022-09-09T07:05:28;100613.72;;;17.07;79.71
64200;BME280;50516;52.272;5.136;2022-09-09T07:07:53;100603.13;;;17.09;78.77
64200;BME280;50516;52.272;5.136;2022-09-09T07:10:18;100598.78;;;17.43;78.43
64200;BME280;50516;52.272;5.136;2022-09-09T07:12:44;100601.06;;;17.76;77.09
64200;BME280;50516;52.272;5.136;2022-09-09T07:15:09;100603.72;;;17.98;76.31
64200;BME280;50516;52.272;5.136;2022-09-09T07:17:35;100596.84;;;18.04;76.23
64200;BME280;50516;52.272;5.136;2022-09-09T07:20:01;100601.31;;;18.44;75.16
64200;BME280;50516;52.272;5.136;2022-09-09T07:22:29;100591.88;;;18.36;74.93
64200;BME280;50516;52.272;5.136;2022-09-09T07:24:54;100596.56;;;18.53;74.37
64200;BME280;50516;52.272;5.136;2022-09-09T07:27:19;100593.03;;;18.35;75.45
64200;BME280;50516;52.272;5.136;2022-09-09T07:29:45;100594.44;;;18.50;75.54
64200;BME280;50516;52.272;5.136;2022-09-09T07:32:10;100594.03;;;18.22;75.32
64200;BME280;50516;52.272;5.136;2022-09-09T07:34:36;100597.31;;;18.15;75.35
64200;BME280;50516;52.272;5.136;2022-09-09T07:37:01;100604.00;;;18.23;76.09
64200;BME280;50516;52.272;5.136;2022-09-09T07:39:27;100602.22;;;18.18;76.25
64200;BME280;50516;52.272;5.136;2022-09-09T07:41:52;100595.19;;;18.03;76.36
64200;BME280;50516;52.272;5.136;2022-09-09T07:44:22;100600.59;;;17.82;76.55
64200;BME280;50516;52.272;5.136;2022-09-09T07:46:48;100596.66;;;17.83;77.03
64200;BME280;50516;52.272;5.136;2022-09-09T07:49:14;100606.47;;;17.81;76.73
64200;BME280;50516;52.272;5.136;2022-09-09T07:51:41;100603.69;;;17.72;76.98
64200;BME280;50516;52.272;5.136;2022-09-09T07:54:10;100602.22;;;17.75;77.10
64200;BME280;50516;52.272;5.136;2022-09-09T07:56:36;100594.75;;;17.93;76.18
64200;BME280;50516;52.272;5.136;2022-09-09T07:59:02;100592.25;;;18.09;75.46
64200;BME280;50516;52.272;5.136;2022-09-09T08:01:50;100605.00;;;18.18;75.08
64200;BME280;50516;52.272;5.136;2022-09-09T08:04:19;100605.47;;;18.12;75.41
64200;BME280;50516;52.272;5.136;2022-09-09T08:06:54;100605.81;;;18.10;75.49
64200;BME280;50516;52.272;5.136;2022-09-09T08:09:20;100594.72;;;18.01;75.27
64200;BME280;50516;52.272;5.136;2022-09-09T08:11:46;100601.41;;;17.83;75.75
64200;BME280;50516;52.272;5.136;2022-09-09T08:14:12;100607.47;;;17.85;75.65
64200;BME280;50516;52.272;5.136;2022-09-09T08:16:46;100605.97;;;17.79;76.16
64200;BME280;50516;52.272;5.136;2022-09-09T08:19:13;100601.72;;;17.73;76.27
64200;BME280;50516;52.272;5.136;2022-09-09T08:21:40;100605.66;;;17.72;76.39
64200;BME280;50516;52.272;5.136;2022-09-09T08:24:07;100604.19;;;17.83;76.03
64200;BME280;50516;52.272;5.136;2022-09-09T08:26:35;100600.59;;;17.82;75.31
64200;BME280;50516;52.272;5.136;2022-09-09T08:29:02;100609.28;;;18.07;74.90
64200;BME280;50516;52.272;5.136;2022-09-09T08:31:33;100602.88;;;18.15;74.79
64200;BME280;50516;52.272;5.136;2022-09-09T08:34:00;100610.50;;;18.36;73.81
64200;BME280;50516;52.272;5.136;2022-09-09T08:36:27;100610.72;;;18.69;72.60
64200;BME280;50516;52.272;5.136;2022-09-09T08:38:56;100605.84;;;18.66;72.45
64200;BME280;50516;52.272;5.136;2022-09-09T08:52:19;100616.41;;;18.82;71.33
64200;BME280;50516;52.272;5.136;2022-09-09T08:54:46;100624.16;;;18.67;71.31
64200;BME280;50516;52.272;5.136;2022-09-09T08:57:19;100614.84;;;18.63;71.58
64200;BME280;50516;52.272;5.136;2022-09-09T08:59:45;100625.94;;;18.72;71.57
64200;BME280;50516;52.272;5.136;2022-09-09T09:02:23;100630.00;;;18.74;71.55
64200;BME280;50516;52.272;5.136;2022-09-09T09:04:56;100620.22;;;18.68;72.22
64200;BME280;50516;52.272;5.136;2022-09-09T09:07:49;100622.66;;;18.78;71.70
64200;BME280;50516;52.272;5.136;2022-09-09T09:12:54;100632.19;;;18.60;71.69
64200;BME280;50516;52.272;5.136;2022-09-09T09:15:23;100633.41;;;18.89;70.83
64200;BME280;50516;52.272;5.136;2022-09-09T09:17:50;100628.94;;;19.05;69.94
64200;BME280;50516;52.272;5.136;2022-09-09T09:20:16;100628.66;;;18.98;70.32
64200;BME280;50516;52.272;5.136;2022-09-09T09:22:48;100628.06;;;18.84;70.69
64200;BME280;50516;52.272;5.136;2022-09-09T09:25:18;100632.94;;;18.87;70.84
64200;BME280;50516;52.272;5.136;2022-09-09T09:31:03;100632.03;;;18.56;71.91
64200;BME280;50516;52.272;5.136;2022-09-09T09:33:51;100627.78;;;18.59;71.43
64200;BME280;50516;52.272;5.136;2022-09-09T09:36:18;100634.56;;;18.32;72.61
64200;BME280;50516;52.272;5.136;2022-09-09T09:38:58;100636.69;;;18.26;72.46
64200;BME280;50516;52.272;5.136;2022-09-09T09:41:34;100629.16;;;18.35;72.59
64200;BME280;50516;52.272;5.136;2022-09-09T09:44:01;100636.66;;;18.43;72.70
64200;BME280;50516;52.272;5.136;2022-09-09T09:46:27;100638.94;;;18.41;72.55
64200;BME280;50516;52.272;5.136;2022-09-09T09:49:02;100631.56;;;18.46;72.93
64200;BME280;50516;52.272;5.136;2022-09-09T09:51:29;100636.16;;;18.41;72.76
64200;BME280;50516;52.272;5.136;2022-09-09T09:56:46;100631.75;;;18.40;73.27
64200;BME280;50516;52.272;5.136;2022-09-09T09:59:42;100630.25;;;18.52;73.07
64200;BME280;50516;52.272;5.136;2022-09-09T10:02:18;100636.41;;;18.84;71.67
64200;BME280;50516;52.272;5.136;2022-09-09T10:04:44;100629.50;;;18.90;71.85
64200;BME280;50516;52.272;5.136;2022-09-09T10:07:18;100639.03;;;19.19;71.56
64200;BME280;50516;52.272;5.136;2022-09-09T10:09:43;100638.06;;;19.14;71.13
64200;BME280;50516;52.272;5.136;2022-09-09T10:12:34;100630.56;;;19.06;70.91
64200;BME280;50516;52.272;5.136;2022-09-09T10:20:53;100627.66;;;19.03;71.20
64200;BME280;50516;52.272;5.136;2022-09-09T10:23:46;100627.50;;;19.29;70.73
64200;BME280;50516;52.272;5.136;2022-09-09T10:26:53;100624.16;;;19.86;69.04
64200;BME280;50516;52.272;5.136;2022-09-09T10:32:30;100627.56;;;20.25;66.58
64200;BME280;50516;52.272;5.136;2022-09-09T10:37:54;100629.00;;;19.68;69.28
64200;BME280;50516;52.272;5.136;2022-09-09T10:40:34;100633.09;;;19.71;70.23
64200;BME280;50516;52.272;5.136;2022-09-09T10:46:01;100627.09;;;19.90;72.29
64200;BME280;50516;52.272;5.136;2022-09-09T10:48:37;100621.47;;;20.57;71.64
64200;BME280;50516;52.272;5.136;2022-09-09T10:51:28;100624.81;;;21.21;69.85
64200;BME280;50516;52.272;5.136;2022-09-09T10:54:25;100619.09;;;21.54;69.67
64200;BME280;50516;52.272;5.136;2022-09-09T10:56:58;100603.88;;;21.27;69.94
64200;BME280;50516;52.272;5.136;2022-09-09T10:59:32;100608.91;;;20.96;71.14
64200;BME280;50516;52.272;5.136;2022-09-09T11:02:05;100609.59;;;20.93;71.63
64200;BME280;50516;52.272;5.136;2022-09-09T11:05:08;100611.91;;;20.91;70.34
64200;BME280;50516;52.272;5.136;2022-09-09T11:07:45;100614.47;;;20.84;70.21
64200;BME280;50516;52.272;5.136;2022-09-09T11:12:48;100606.63;;;20.53;70.91
64200;BME280;50516;52.272;5.136;2022-09-09T11:15:23;100620.75;;;20.69;68.89
64200;BME280;50516;52.272;5.136;2022-09-09T11:17:56;100615.56;;;20.58;69.94
64200;BME280;50516;52.272;5.136;2022-09-09T11:20:23;100614.63;;;20.54;69.99
64200;BME280;50516;52.272;5.136;2022-09-09T11:23:17;100615.09;;;20.56;69.81
64200;BME280;50516;52.272;5.136;2022-09-09T11:25:48;100617.50;;;20.46;69.67
64200;BME280;50516;52.272;5.136;2022-09-09T11:31:42;100612.88;;;20.50;69.23
64200;BME280;50516;52.272;5.136;2022-09-09T11:37:07;100603.50;;;20.21;68.85
64200;BME280;50516;52.272;5.136;2022-09-09T11:42:27;100603.31;;;20.96;67.94
64200;BME280;50516;52.272;5.136;2022-09-09T11:44:52;100595.63;;;21.18;66.60
64200;BME280;50516;52.272;5.136;2022-09-09T11:47:26;100597.78;;;20.63;67.21
64200;BME280;50516;52.272;5.136;2022-09-09T11:52:41;100604.06;;;20.48;68.64
64200;BME280;50516;52.272;5.136;2022-09-09T11:55:10;100609.75;;;20.51;69.11
64200;BME280;50516;52.272;5.136;2022-09-09T11:57:37;100605.94;;;20.56;68.95
64200;BME280;50516;52.272;5.136;2022-09-09T12:00:04;100608.91;;;20.51;69.84
64200;BME280;50516;52.272;5.136;2022-09-09T12:02:30;100603.97;;;20.23;70.75
64200;BME280;50516;52.272;5.136;2022-09-09T12:05:08;100619.25;;;20.04;71.62
64200;BME280;50516;52.272;5.136;2022-09-09T12:10:04;100612.78;;;19.49;74.61
64200;BME280;50516;52.272;5.136;2022-09-09T12:12:37;100627.84;;;19.48;75.45
64200;BME280;50516;52.272;5.136;2022-09-09T12:17:50;100614.25;;;20.43;73.87
64200;BME280;50516;52.272;5.136;2022-09-09T12:20:35;100609.00;;;20.88;72.26
64200;BME280;50516;52.272;5.136;2022-09-09T12:26:03;100615.72;;;20.74;72.01
64200;BME280;50516;52.272;5.136;2022-09-09T12:28:49;100614.00;;;20.94;72.24
64200;BME280;50516;52.272;5.136;2022-09-09T12:34:33;100607.00;;;21.01;70.74
64200;BME280;50516;52.272;5.136;2022-09-09T12:37:32;100600.84;;;21.20;70.60
64200;BME280;50516;52.272;5.136;2022-09-09T12:40:22;100601.44;;;21.13;70.83
64200;BME280;50516;52.272;5.136;2022-09-09T12:42:46;100596.91;;;20.84;71.06
64200;BME280;50516;52.272;5.136;2022-09-09T12:45:22;100600.50;;;20.84;70.76
64200;BME280;50516;52.272;5.136;2022-09-09T12:48:18;100599.72;;;20.38;71.65
64200;BME280;50516;52.272;5.136;2022-09-09T12:50:50;100607.97;;;20.01;72.04
64200;BME280;50516;52.272;5.136;2022-09-09T12:56:05;100603.44;;;19.96;71.67
64200;BME280;50516;52.272;5.136;2022-09-09T12:58:33;100604.66;;;19.86;72.64
64200;BME280;50516;52.272;5.136;2022-09-09T13:01:01;100609.16;;;19.79;71.73
64200;BME280;50516;52.272;5.136;2022-09-09T13:03:29;100598.56;;;20.05;72.30
64200;BME280;50516;52.272;5.136;2022-09-09T13:05:58;100593.22;;;20.34;70.77
64200;BME280;50516;52.272;5.136;2022-09-09T13:08:27;100594.34;;;20.33;70.45
64200;BME280;50516;52.272;5.136;2022-09-09T13:10:56;100598.53;;;20.27;70.76
64200;BME280;50516;52.272;5.136;2022-09-09T13:13:34;100591.25;;;20.01;71.01
64200;BME280;50516;52.272;5.136;2022-09-09T13:16:02;100595.81;;;19.84;72.87
64200;BME280;50516;52.272;5.136;2022-09-09T13:18:32;100593.91;;;19.76;73.36
64200;BME280;50516;52.272;5.136;2022-09-09T13:20:59;100598.34;;;19.77;74.01
64200;BME280;50516;52.272;5.136;2022-09-09T13:23:27;100594.53;;;19.61;75.33
64200;BME280;50516;52.272;5.136;2022-09-09T13:25:56;100597.97;;;19.58;74.66
64200;BME280;50516;52.272;5.136;2022-09-09T13:28:23;100592.91;;;19.81;72.64
64200;BME280;50516;52.272;5.136;2022-09-09T13:30:59;100597.53;;;19.98;72.80
64200;BME280;50516;52.272;5.136;2022-09-09T13:33:32;100597.28;;;20.03;71.95
64200;BME280;50516;52.272;5.136;2022-09-09T13:36:04;100595.94;;;20.21;71.98
64200;BME280;50516;52.272;5.136;2022-09-09T13:38:38;100595.72;;;20.14;72.03
64200;BME280;50516;52.272;5.136;2022-09-09T13:41:08;100587.22;;;20.11;72.11
64200;BME280;50516;52.272;5.136;2022-09-09T13:43:36;100590.66;;;19.95;72.66
64200;BME280;50516;52.272;5.136;2022-09-09T13:46:06;100593.88;;;19.85;74.25
64200;BME280;50516;52.272;5.136;2022-09-09T13:48:58;100592.56;;;19.82;74.58
64200;BME280;50516;52.272;5.136;2022-09-09T13:51:42;100604.44;;;19.49;75.39
64200;BME280;50516;52.272;5.136;2022-09-09T13:54:13;100592.41;;;19.58;75.62
64200;BME280;50516;52.272;5.136;2022-09-09T13:56:40;100597.53;;;19.77;74.95
64200;BME280;50516;52.272;5.136;2022-09-09T13:59:10;100593.84;;;19.64;75.82
64200;BME280;50516;52.272;5.136;2022-09-09T14:01:36;100595.59;;;19.68;75.28
64200;BME280;50516;52.272;5.136;2022-09-09T14:04:03;100600.16;;;19.52;75.89
64200;BME280;50516;52.272;5.136;2022-09-09T14:06:29;100600.47;;;19.50;75.73
64200;BME280;50516;52.272;5.136;2022-09-09T14:08:54;100602.47;;;19.50;76.00
64200;BME280;50516;52.272;5.136;2022-09-09T14:11:20;100593.22;;;19.37;76.37
64200;BME280;50516;52.272;5.136;2022-09-09T14:13:47;100607.44;;;19.44;74.98
64200;BME280;50516;52.272;5.136;2022-09-09T14:16:15;100592.66;;;19.23;75.63
64200;BME280;50516;52.272;5.136;2022-09-09T14:18:40;100602.25;;;19.34;76.03
64200;BME280;50516;52.272;5.136;2022-09-09T14:21:06;100594.81;;;19.17;75.98
64200;BME280;50516;52.272;5.136;2022-09-09T14:23:31;100602.22;;;19.13;76.22
64200;BME280;50516;52.272;5.136;2022-09-09T14:25:57;100600.94;;;19.10;75.51
64200;BME280;50516;52.272;5.136;2022-09-09T14:28:22;100602.97;;;19.22;76.20
64200;BME280;50516;52.272;5.136;2022-09-09T14:30:48;100590.91;;;19.39;75.17
64200;BME280;50516;52.272;5.136;2022-09-09T14:33:15;100589.97;;;19.56;74.72
64200;BME280;50516;52.272;5.136;2022-09-09T14:35:41;100589.63;;;19.58;75.04
64200;BME280;50516;52.272;5.136;2022-09-09T14:38:07;100600.47;;;19.50;74.75
64200;BME280;50516;52.272;5.136;2022-09-09T14:40:34;100590.78;;;19.57;74.01
64200;BME280;50516;52.272;5.136;2022-09-09T14:43:00;100597.22;;;19.69;74.08
64200;BME280;50516;52.272;5.136;2022-09-09T14:45:25;100593.78;;;19.94;73.95
64200;BME280;50516;52.272;5.136;2022-09-09T14:47:51;100591.28;;;20.13;73.63